sensor_id;sensor_type;location;lat;lon;timestamp;pressure;altitude;pressure_sealevel;temperature;humidity
44297;BME280;51842;47.450;8.654;2023-06-01T00:01:53;95523.50;;;12.51;72.80
44297;BME280;51842;47.450;8.654;2023-06-01T00:04:18;95523.25;;;12.47;72.83
44297;BME280;51842;47.450;8.654;2023-06-01T00:06:44;95520.63;;;12.42;72.23
44297;BME280;51842;47.450;8.654;2023-06-01T00:09:10;95529.19;;;12.34;72.92
44297;BME280;51842;47.450;8.654;2023-06-01T00:11:36;95527.13;;;12.26;72.27
44297;BME280;51842;47.450;8.654;2023-06-01T00:14:02;95534.06;;;12.22;71.60
44297;BME280;51842;47.450;8.654;2023-06-01T00:27:31;95531.22;;;12.08;76.58
44297;BME280;51842;47.450;8.654;2023-06-01T00:29:57;95530.19;;;11.99;77.78
44297;BME280;51842;47.450;8.654;2023-06-01T00:32:22;95529.41;;;11.93;78.17
44297;BME280;51842;47.450;8.654;2023-06-01T00:34:48;95529.22;;;11.85;77.79
44297;BME280;51842;47.450;8.654;2023-06-01T00:37:14;95531.56;;;11.81;79.46
44297;BME280;51842;47.450;8.654;2023-06-01T00:39:40;95531.56;;;11.81;78.32
44297;BME280;51842;47.450;8.654;2023-06-01T00:42:06;95527.06;;;11.76;78.41
44297;BME280;51842;47.450;8.654;2023-06-01T00:44:31;95526.03;;;11.72;78.61
44297;BME280;51842;47.450;8.654;2023-06-01T00:46:57;95531.38;;;11.67;78.72
44297;BME280;51842;47.450;8.654;2023-06-01T00:49:26;95521.78;;;11.61;78.72
44297;BME280;51842;47.450;8.654;2023-06-01T00:51:53;95530.34;;;11.58;79.18
44297;BME280;51842;47.450;8.654;2023-06-01T00:54:20;95522.34;;;11.53;80.25
44297;BME280;51842;47.450;8.654;2023-06-01T00:56:46;95525.00;;;11.53;79.89
44297;BME280;51842;47.450;8.654;2023-06-01T00:59:12;95526.06;;;11.52;79.96
44297;BME280;51842;47.450;8.654;2023-06-01T01:01:38;95521.28;;;11.49;80.97
44297;BME280;51842;47.450;8.654;2023-06-01T01:04:08;95522.91;;;11.45;81.42
44297;BME280;51842;47.450;8.654;2023-06-01T01:07:21;95529.06;;;11.35;83.48
44297;BME280;51842;47.450;8.654;2023-06-01T01:10:05;95527.19;;;11.35;82.96
44297;BME280;51842;47.450;8.654;2023-06-01T01:12:51;95523.19;;;11.33;82.66
44297;BME280;51842;47.450;8.654;2023-06-01T01:25:21;95528.00;;;11.21;83.75
44297;BME280;51842;47.450;8.654;2023-06-01T01:30:47;95528.03;;;11.10;85.07
44297;BME280;51842;47.450;8.654;2023-06-01T01:33:14;95527.50;;;11.14;85.28
44297;BME280;51842;47.450;8.654;2023-06-01T01:35:41;95532.28;;;11.22;85.44
44297;BME280;51842;47.450;8.654;2023-06-01T01:38:08;95534.16;;;11.26;84.90
44297;BME280;51842;47.450;8.654;2023-06-01T01:40:33;95527.47;;;11.29;85.16
44297;BME280;51842;47.450;8.654;2023-06-01T01:43:00;95526.94;;;11.32;83.81
44297;BME280;51842;47.450;8.654;2023-06-01T01:45:27;95521.84;;;11.35;82.92
44297;BME280;51842;47.450;8.654;2023-06-01T01:50:41;95513.56;;;11.47;80.89
44297;BME280;51842;47.450;8.654;2023-06-01T01:53:12;95522.06;;;11.54;80.99
44297;BME280;51842;47.450;8.654;2023-06-01T01:55:38;95518.31;;;11.55;80.40
44297;BME280;51842;47.450;8.654;2023-06-01T01:58:05;95517.00;;;11.53;81.58
44297;BME280;51842;47.450;8.654;2023-06-01T02:00:31;95519.16;;;11.51;81.40
44297;BME280;51842;47.450;8.654;2023-06-01T02:02:59;95516.75;;;11.54;81.54
44297;BME280;51842;47.450;8.654;2023-06-01T02:05:25;95514.88;;;11.60;80.32
44297;BME280;51842;47.450;8.654;2023-06-01T02:07:51;95515.13;;;11.64;79.72
44297;BME280;51842;47.450;8.654;2023-06-01T02:10:17;95512.69;;;11.62;79.20
44297;BME280;51842;47.450;8.654;2023-06-01T02:12:43;95516.44;;;11.61;79.54
44297;BME280;51842;47.450;8.654;2023-06-01T02:15:09;95513.78;;;11.66;80.25
44297;BME280;51842;47.450;8.654;2023-06-01T02:17:35;95513.22;;;11.69;81.13
44297;BME280;51842;47.450;8.654;2023-06-01T02:20:02;95517.19;;;11.72;80.86
44297;BME280;51842;47.450;8.654;2023-06-01T02:22:28;95511.91;;;11.67;80.57
44297;BME280;51842;47.450;8.654;2023-06-01T02:24:54;95511.41;;;11.54;81.62
44297;BME280;51842;47.450;8.654;2023-06-01T02:27:20;95510.38;;;11.50;82.38
44297;BME280;51842;47.450;8.654;2023-06-01T02:29:46;95512.75;;;11.47;82.08
44297;BME280;51842;47.450;8.654;2023-06-01T02:32:11;95510.38;;;11.40;82.86
44297;BME280;51842;47.450;8.654;2023-06-01T02:34:37;95506.41;;;11.38;82.90
44297;BME280;51842;47.450;8.654;2023-06-01T02:37:03;95510.91;;;11.37;83.40
44297;BME280;51842;47.450;8.654;2023-06-01T02:39:30;95515.47;;;11.31;83.83
44297;BME280;51842;47.450;8.654;2023-06-01T02:41:55;95508.28;;;11.27;83.51
44297;BME280;51842;47.450;8.654;2023-06-01T02:44:21;95503.72;;;11.27;84.45
44297;BME280;51842;47.450;8.654;2023-06-01T02:46:47;95510.94;;;11.32;83.15
44297;BME280;51842;47.450;8.654;2023-06-01T02:49:12;95510.66;;;11.33;82.98
44297;BME280;51842;47.450;8.654;2023-06-01T02:51:38;95510.41;;;11.30;84.65
44297;BME280;51842;47.450;8.654;2023-06-01T02:54:04;95511.72;;;11.27;83.22
44297;BME280;51842;47.450;8.654;2023-06-01T02:56:29;95510.16;;;11.31;83.71
44297;BME280;51842;47.450;8.654;2023-06-01T02:58:55;95505.59;;;11.32;84.49
44297;BME280;51842;47.450;8.654;2023-06-01T03:01:21;95515.72;;;11.35;83.00
44297;BME280;51842;47.450;8.654;2023-06-01T03:03:47;95511.19;;;11.30;82.51
44297;BME280;51842;47.450;8.654;2023-06-01T03:06:14;95515.19;;;11.28;82.14
44297;BME280;51842;47.450;8.654;2023-06-01T03:08:43;95517.88;;;11.23;82.29
44297;BME280;51842;47.450;8.654;2023-06-01T03:11:08;95517.38;;;11.16;82.54
44297;BME280;51842;47.450;8.654;2023-06-01T03:13:34;95520.84;;;11.06;84.09
44297;BME280;51842;47.450;8.654;2023-06-01T03:16:00;95525.91;;;11.02;85.37
44297;BME280;51842;47.450;8.654;2023-06-01T03:18:26;95525.66;;;10.99;85.25
44297;BME280;51842;47.450;8.654;2023-06-01T03:20:51;95525.91;;;10.92;85.81
44297;BME280;51842;47.450;8.654;2023-06-01T03:23:18;95535.53;;;10.88;86.46
44297;BME280;51842;47.450;8.654;2023-06-01T03:25:43;95524.84;;;10.83;85.47
44297;BME280;51842;47.450;8.654;2023-06-01T03:28:09;95534.47;;;10.79;85.59
44297;BME280;51842;47.450;8.654;2023-06-01T03:30:35;95526.72;;;10.72;87.81
44297;BME280;51842;47.450;8.654;2023-06-01T03:33:01;95535.78;;;10.66;89.00
44297;BME280;51842;47.450;8.654;2023-06-01T03:35:26;95523.25;;;10.67;88.31
44297;BME280;51842;47.450;8.654;2023-06-01T03:37:52;95527.25;;;10.64;88.30
44297;BME280;51842;47.450;8.654;2023-06-01T03:40:18;95528.31;;;10.63;87.97
44297;BME280;51842;47.450;8.654;2023-06-01T03:42:48;95532.06;;;10.57;88.03
44297;BME280;51842;47.450;8.654;2023-06-01T03:45:15;95533.38;;;10.54;87.85
44297;BME280;51842;47.450;8.654;2023-06-01T03:47:42;95547.47;;;10.50;87.96
44297;BME280;51842;47.450;8.654;2023-06-01T03:50:09;95538.69;;;10.44;90.20
44297;BME280;51842;47.450;8.654;2023-06-01T03:52:36;95546.69;;;10.44;89.24
44297;BME280;51842;47.450;8.654;2023-06-01T03:55:05;95542.94;;;10.40;89.69
44297;BME280;51842;47.450;8.654;2023-06-01T03:57:34;95545.88;;;10.38;89.19
44297;BME280;51842;47.450;8.654;2023-06-01T04:00:04;95540.00;;;10.31;91.08
44297;BME280;51842;47.450;8.654;2023-06-01T04:02:57;95546.66;;;10.29;92.67
44297;BME280;51842;47.450;8.654;2023-06-01T04:05:25;95544.78;;;10.29;93.95
44297;BME280;51842;47.450;8.654;2023-06-01T04:07:53;95545.84;;;10.28;93.23
44297;BME280;51842;47.450;8.654;2023-06-01T04:10:20;95547.97;;;10.26;93.39
44297;BME280;51842;47.450;8.654;2023-06-01T04:12:48;95561.03;;;10.33;92.83
44297;BME280;51842;47.450;8.654;2023-06-01T04:15:19;95551.19;;;10.38;92.42
44297;BME280;51842;47.450;8.654;2023-06-01T04:17:45;95553.59;;;10.40;92.12
44297;BME280;51842;47.450;8.654;2023-06-01T04:20:17;95557.06;;;10.40;92.56
44297;BME280;51842;47.450;8.654;2023-06-01T04:22:45;95565.31;;;10.44;93.56
44297;BME280;51842;47.450;8.654;2023-06-01T04:25:15;95567.19;;;10.59;94.05
44297;BME280;51842;47.450;8.654;2023-06-01T04:27:46;95566.69;;;10.77;93.88
44297;BME280;51842;47.450;8.654;2023-06-01T04:30:13;95563.50;;;10.96;92.86
44297;BME280;51842;47.450;8.654;2023-06-01T04:32:39;95560.28;;;11.14;91.48
44297;BME280;51842;47.450;8.654;2023-06-01T04:35:07;95559.19;;;11.35;90.86
44297;BME280;51842;47.450;8.654;2023-06-01T04:37:35;95565.53;;;11.60;89.78
44297;BME280;51842;47.450;8.654;2023-06-01T04:40:03;95563.34;;;11.82;87.97
44297;BME280;51842;47.450;8.654;2023-06-01T04:42:37;95566.72;;;12.09;85.86
44297;BME280;51842;47.450;8.654;2023-06-01T04:45:05;95568.75;;;12.32;82.88
44297;BME280;51842;47.450;8.654;2023-06-01T04:47:34;95560.84;;;12.61;81.13
44297;BME280;51842;47.450;8.654;2023-06-01T04:50:08;95572.66;;;12.89;78.19
44297;BME280;51842;47.450;8.654;2023-06-01T04:52:39;95564.66;;;13.18;75.95
44297;BME280;51842;47.450;8.654;2023-06-01T04:55:07;95564.97;;;13.46;74.75
44297;BME280;51842;47.450;8.654;2023-06-01T04:57:36;95567.13;;;13.73;72.96
44297;BME280;51842;47.450;8.654;2023-06-01T05:00:06;95567.34;;;14.01;70.86
44297;BME280;51842;47.450;8.654;2023-06-01T05:02:43;95567.28;;;14.25;70.36
44297;BME280;51842;47.450;8.654;2023-06-01T05:05:11;95575.06;;;14.45;69.74
44297;BME280;51842;47.450;8.654;2023-06-01T05:07:38;95565.47;;;14.63;67.30
44297;BME280;51842;47.450;8.654;2023-06-01T05:10:06;95570.53;;;14.84;67.61
44297;BME280;51842;47.450;8.654;2023-06-01T05:12:33;95577.75;;;15.02;66.77
44297;BME280;51842;47.450;8.654;2023-06-01T05:15:04;95575.84;;;15.21;64.98
44297;BME280;51842;47.450;8.654;2023-06-01T05:17:31;95576.19;;;15.47;64.38
44297;BME280;51842;47.450;8.654;2023-06-01T05:19:57;95573.97;;;15.68;63.93
44297;BME280;51842;47.450;8.654;2023-06-01T05:22:23;95573.78;;;15.92;64.07
44297;BME280;51842;47.450;8.654;2023-06-01T05:24:49;95575.38;;;16.07;61.21
44297;BME280;51842;47.450;8.654;2023-06-01T05:27:16;95576.34;;;16.25;60.47
44297;BME280;51842;47.450;8.654;2023-06-01T05:29:42;95584.72;;;16.37;60.70
44297;BME280;51842;47.450;8.654;2023-06-01T05:32:09;95587.50;;;16.46;61.97
44297;BME280;51842;47.450;8.654;2023-06-01T05:34:35;95591.16;;;16.64;62.55
44297;BME280;51842;47.450;8.654;2023-06-01T05:37:02;95591.41;;;16.76;62.08
44297;BME280;51842;47.450;8.654;2023-06-01T05:39:28;95581.78;;;16.98;60.61
44297;BME280;51842;47.450;8.654;2023-06-01T05:41:55;95578.13;;;17.16;59.94
44297;BME280;51842;47.450;8.654;2023-06-01T05:44:21;95585.81;;;17.31;59.09
44297;BME280;51842;47.450;8.654;2023-06-01T05:46:47;95590.28;;;17.58;59.27
44297;BME280;51842;47.450;8.654;2023-06-01T05:49:14;95583.06;;;17.76;57.79
44297;BME280;51842;47.450;8.654;2023-06-01T05:51:40;95585.13;;;18.02;56.15
44297;BME280;51842;47.450;8.654;2023-06-01T05:54:09;95587.72;;;18.24;56.70
44297;BME280;51842;47.450;8.654;2023-06-01T05:56:35;95592.88;;;18.52;56.07
44297;BME280;51842;47.450;8.654;2023-06-01T05:59:06;95589.91;;;18.80;53.87
44297;BME280;51842;47.450;8.654;2023-06-01T06:01:32;95593.25;;;19.03;52.82
44297;BME280;51842;47.450;8.654;2023-06-01T06:03:58;95589.59;;;19.25;52.40
44297;BME280;51842;47.450;8.654;2023-06-01T06:06:25;95594.66;;;19.35;50.61
44297;BME280;51842;47.450;8.654;2023-06-01T06:08:52;95595.44;;;19.53;49.86
44297;BME280;51842;47.450;8.654;2023-06-01T06:11:18;95600.66;;;19.75;49.35
44297;BME280;51842;47.450;8.654;2023-06-01T06:13:44;95607.47;;;19.81;48.91
44297;BME280;51842;47.450;8.654;2023-06-01T06:16:10;95601.19;;;19.98;49.35
44297;BME280;51842;47.450;8.654;2023-06-01T06:18:36;95602.88;;;20.11;48.42
44297;BME280;51842;47.450;8.654;2023-06-01T06:21:02;95606.78;;;20.31;48.12
44297;BME280;51842;47.450;8.654;2023-06-01T06:23:27;95608.44;;;20.53;46.94
44297;BME280;51842;47.450;8.654;2023-06-01T06:25:55;95601.88;;;20.63;46.91
44297;BME280;51842;47.450;8.654;2023-06-01T06:28:21;95605.09;;;20.77;47.19
44297;BME280;51842;47.450;8.654;2023-06-01T06:30:47;95602.63;;;20.93;45.57
44297;BME280;51842;47.450;8.654;2023-06-01T06:33:13;95604.84;;;20.91;45.29
44297;BME280;51842;47.450;8.654;2023-06-01T06:35:39;95603.06;;;20.95;46.10
44297;BME280;51842;47.450;8.654;2023-06-01T06:38:07;95610.06;;;21.17;45.84
44297;BME280;51842;47.450;8.654;2023-06-01T06:40:32;95606.91;;;21.36;44.79
44297;BME280;51842;47.450;8.654;2023-06-01T06:42:58;95616.44;;;21.34;46.34
44297;BME280;51842;47.450;8.654;2023-06-01T06:45:24;95617.25;;;21.55;45.06
44297;BME280;51842;47.450;8.654;2023-06-01T06:47:49;95611.44;;;21.78;44.59
44297;BME280;51842;47.450;8.654;2023-06-01T06:50:15;95607.97;;;22.02;43.85
44297;BME280;51842;47.450;8.654;2023-06-01T06:52:41;95607.94;;;22.23;43.47
44297;BME280;51842;47.450;8.654;2023-06-01T06:55:08;95609.72;;;22.43;43.29
44297;BME280;51842;47.450;8.654;2023-06-01T06:57:34;95604.41;;;22.59;42.08
44297;BME280;51842;47.450;8.654;2023-06-01T07:00:01;95599.72;;;22.84;42.88
44297;BME280;51842;47.450;8.654;2023-06-01T07:02:29;95610.47;;;23.05;42.01
44297;BME280;51842;47.450;8.654;2023-06-01T07:04:54;95604.25;;;23.04;42.17
44297;BME280;51842;47.450;8.654;2023-06-01T07:07:20;95607.38;;;23.19;41.56
44297;BME280;51842;47.450;8.654;2023-06-01T07:09:46;95613.25;;;23.49;41.92
44297;BME280;51842;47.450;8.654;2023-06-01T07:12:12;95608.91;;;23.60;41.11
44297;BME280;51842;47.450;8.654;2023-06-01T07:14:37;95609.41;;;23.78;40.37
44297;BME280;51842;47.450;8.654;2023-06-01T07:17:04;95606.78;;;23.82;40.68
44297;BME280;51842;47.450;8.654;2023-06-01T07:19:29;95613.06;;;23.98;39.58
44297;BME280;51842;47.450;8.654;2023-06-01T07:21:59;95610.41;;;24.01;39.79
44297;BME280;51842;47.450;8.654;2023-06-01T07:24:28;95614.47;;;24.23;39.54
44297;BME280;51842;47.450;8.654;2023-06-01T07:26:54;95606.91;;;24.49;38.91
44297;BME280;51842;47.450;8.654;2023-06-01T07:29:24;95615.31;;;24.75;38.92
44297;BME280;51842;47.450;8.654;2023-06-01T07:31:50;95607.38;;;24.86;38.24
44297;BME280;51842;47.450;8.654;2023-06-01T07:34:17;95604.28;;;25.23;38.26
44297;BME280;51842;47.450;8.654;2023-06-01T07:36:46;95610.31;;;25.51;37.66
44297;BME280;51842;47.450;8.654;2023-06-01T07:39:13;95609.00;;;25.84;35.92
44297;BME280;51842;47.450;8.654;2023-06-01T07:41:39;95606.78;;;25.90;35.91
44297;BME280;51842;47.450;8.654;2023-06-01T07:44:06;95598.97;;;26.11;35.80
44297;BME280;51842;47.450;8.654;2023-06-01T07:46:33;95600.16;;;26.37;35.31
44297;BME280;51842;47.450;8.654;2023-06-01T07:48:59;95593.69;;;26.22;35.08
44297;BME280;51842;47.450;8.654;2023-06-01T07:51:24;95596.22;;;26.34;34.82
44297;BME280;51842;47.450;8.654;2023-06-01T07:53:50;95600.28;;;26.21;35.12
44297;BME280;51842;47.450;8.654;2023-06-01T07:56:16;95601.47;;;26.46;34.54
44297;BME280;51842;47.450;8.654;2023-06-01T07:58:42;95597.41;;;26.60;34.72
44297;BME280;51842;47.450;8.654;2023-06-01T08:01:09;95600.38;;;26.74;34.29
44297;BME280;51842;47.450;8.654;2023-06-01T08:03:36;95596.13;;;27.07;34.19
44297;BME280;51842;47.450;8.654;2023-06-01T08:06:02;95594.56;;;26.79;33.76
44297;BME280;51842;47.450;8.654;2023-06-01T08:08:31;95593.41;;;27.07;34.56
44297;BME280;51842;47.450;8.654;2023-06-01T08:10:57;95597.00;;;27.44;35.27
44297;BME280;51842;47.450;8.654;2023-06-01T08:13:23;95596.38;;;27.55;33.31
44297;BME280;51842;47.450;8.654;2023-06-01T08:15:51;95597.84;;;27.82;33.35
44297;BME280;51842;47.450;8.654;2023-06-01T08:18:19;95600.25;;;27.87;32.70
44297;BME280;51842;47.450;8.654;2023-06-01T08:20:48;95598.78;;;27.97;32.57
44297;BME280;51842;47.450;8.654;2023-06-01T08:23:17;95605.88;;;28.02;32.17
44297;BME280;51842;47.450;8.654;2023-06-01T08:25:45;95603.28;;;27.79;33.33
44297;BME280;51842;47.450;8.654;2023-06-01T08:28:10;95598.91;;;27.74;33.08
44297;BME280;51842;47.450;8.654;2023-06-01T08:30:36;95605.53;;;28.07;32.46
44297;BME280;51842;47.450;8.654;2023-06-01T08:33:02;95598.44;;;28.43;32.58
44297;BME280;51842;47.450;8.654;2023-06-01T08:35:28;95597.84;;;28.68;31.97
44297;BME280;51842;47.450;8.654;2023-06-01T08:37:56;95605.81;;;28.91;31.79
44297;BME280;51842;47.450;8.654;2023-06-01T08:40:21;95604.34;;;29.08;31.50
44297;BME280;51842;47.450;8.654;2023-06-01T08:45:29;95607.19;;;29.22;31.05
44297;BME280;51842;47.450;8.654;2023-06-01T08:47:56;95606.06;;;29.34;31.03
44297;BME280;51842;47.450;8.654;2023-06-01T08:50:23;95607.19;;;29.25;31.00
44297;BME280;51842;47.450;8.654;2023-06-01T08:52:53;95608.81;;;29.34;31.03
44297;BME280;51842;47.450;8.654;2023-06-01T08:55:22;95608.06;;;29.47;30.17
44297;BME280;51842;47.450;8.654;2023-06-01T08:57:49;95602.94;;;29.35;31.27
44297;BME280;51842;47.450;8.654;2023-06-01T09:00:16;95602.47;;;29.22;31.06
44297;BME280;51842;47.450;8.654;2023-06-01T09:02:43;95591.25;;;29.56;31.40
44297;BME280;51842;47.450;8.654;2023-06-01T09:05:10;95594.44;;;29.65;31.00
44297;BME280;51842;47.450;8.654;2023-06-01T09:07:37;95583.81;;;29.57;30.65
44297;BME280;51842;47.450;8.654;2023-06-01T09:10:04;95593.88;;;29.27;31.76
44297;BME280;51842;47.450;8.654;2023-06-01T09:12:31;95593.13;;;29.34;30.84
44297;BME280;51842;47.450;8.654;2023-06-01T09:15:16;95588.19;;;29.79;31.87
44297;BME280;51842;47.450;8.654;2023-06-01T09:17:45;95597.09;;;29.51;31.66
44297;BME280;51842;47.450;8.654;2023-06-01T09:20:26;95591.41;;;29.01;31.70
44297;BME280;51842;47.450;8.654;2023-06-01T09:22:54;95585.69;;;29.42;31.66
44297;BME280;51842;47.450;8.654;2023-06-01T09:25:31;95585.75;;;29.52;31.38
44297;BME280;51842;47.450;8.654;2023-06-01T09:28:00;95580.63;;;29.47;31.52
44297;BME280;51842;47.450;8.654;2023-06-01T09:30:39;95583.38;;;29.44;31.99
44297;BME280;51842;47.450;8.654;2023-06-01T09:33:15;95577.16;;;29.61;31.62
44297;BME280;51842;47.450;8.654;2023-06-01T09:35:44;95585.69;;;29.31;31.50
44297;BME280;51842;47.450;8.654;2023-06-01T09:38:12;95572.50;;;29.62;31.47
44297;BME280;51842;47.450;8.654;2023-06-01T09:41:00;95585.81;;;29.70;30.84
44297;BME280;51842;47.450;8.654;2023-06-01T09:43:26;95573.19;;;29.55;31.26
44297;BME280;51842;47.450;8.654;2023-06-01T09:46:08;95576.03;;;29.80;31.38
44297;BME280;51842;47.450;8.654;2023-06-01T09:48:35;95580.00;;;30.11;31.53
44297;BME280;51842;47.450;8.654;2023-06-01T09:51:01;95578.47;;;30.53;30.13
44297;BME280;51842;47.450;8.654;2023-06-01T09:53:26;95577.72;;;30.31;31.27
44297;BME280;51842;47.450;8.654;2023-06-01T09:56:00;95575.75;;;30.25;30.98
44297;BME280;51842;47.450;8.654;2023-06-01T09:58:27;95567.91;;;30.34;30.88
44297;BME280;51842;47.450;8.654;2023-06-01T10:00:53;95572.94;;;30.03;30.79
44297;BME280;51842;47.450;8.654;2023-06-01T10:03:22;95570.63;;;30.52;30.19
44297;BME280;51842;47.450;8.654;2023-06-01T10:05:49;95563.13;;;30.74;29.98
44297;BME280;51842;47.450;8.654;2023-06-01T10:08:17;95562.75;;;30.75;29.94
44297;BME280;51842;47.450;8.654;2023-06-01T10:10:48;95557.25;;;30.75;31.00
44297;BME280;51842;47.450;8.654;2023-06-01T10:13:14;95557.66;;;30.59;30.57
44297;BME280;51842;47.450;8.654;2023-06-01T10:15:40;95553.75;;;30.57;30.17
44297;BME280;51842;47.450;8.654;2023-06-01T10:18:07;95551.78;;;30.68;30.44
44297;BME280;51842;47.450;8.654;2023-06-01T10:20:35;95556.06;;;29.87;31.17
44297;BME280;51842;47.450;8.654;2023-06-01T10:23:03;95554.84;;;29.63;30.96
44297;BME280;51842;47.450;8.654;2023-06-01T10:25:42;95545.63;;;28.46;32.81
44297;BME280;51842;47.450;8.654;2023-06-01T10:28:11;95550.72;;;29.17;33.17
44297;BME280;51842;47.450;8.654;2023-06-01T10:30:39;95546.94;;;29.54;32.67
44297;BME280;51842;47.450;8.654;2023-06-01T10:33:06;95550.00;;;29.27;31.53
44297;BME280;51842;47.450;8.654;2023-06-01T10:40:36;95542.16;;;29.26;32.12
44297;BME280;51842;47.450;8.654;2023-06-01T10:43:03;95533.25;;;29.61;31.98
44297;BME280;51842;47.450;8.654;2023-06-01T10:45:41;95530.56;;;30.11;31.48
44297;BME280;51842;47.450;8.654;2023-06-01T10:48:10;95529.78;;;30.07;31.82
44297;BME280;51842;47.450;8.654;2023-06-01T10:50:39;95540.41;;;30.41;31.41
44297;BME280;51842;47.450;8.654;2023-06-01T10:53:28;95529.44;;;30.34;31.46
44297;BME280;51842;47.450;8.654;2023-06-01T10:58:42;95537.22;;;30.67;30.56
44297;BME280;51842;47.450;8.654;2023-06-01T11:01:10;95530.94;;;30.71;30.77
44297;BME280;51842;47.450;8.654;2023-06-01T11:03:48;95517.59;;;30.80;29.91
44297;BME280;51842;47.450;8.654;2023-06-01T11:06:35;95521.13;;;30.66;30.27
44297;BME280;51842;47.450;8.654;2023-06-01T11:09:07;95519.59;;;30.51;30.18
44297;BME280;51842;47.450;8.654;2023-06-01T11:14:26;95519.59;;;30.47;30.67
44297;BME280;51842;47.450;8.654;2023-06-01T11:16:56;95512.50;;;30.82;30.20
44297;BME280;51842;47.450;8.654;2023-06-01T11:19:43;95508.59;;;30.51;32.74
44297;BME280;51842;47.450;8.654;2023-06-01T11:22:10;95505.50;;;30.24;30.87
44297;BME280;51842;47.450;8.654;2023-06-01T11:24:38;95508.19;;;30.49;31.82
44297;BME280;51842;47.450;8.654;2023-06-01T11:27:10;95507.44;;;30.45;30.77
44297;BME280;51842;47.450;8.654;2023-06-01T11:29:37;95503.44;;;30.85;30.55
44297;BME280;51842;47.450;8.654;2023-06-01T11:32:05;95494.06;;;30.54;31.35
44297;BME280;51842;47.450;8.654;2023-06-01T11:34:40;95497.56;;;30.76;30.49
44297;BME280;51842;47.450;8.654;2023-06-01T11:37:19;95498.97;;;31.23;30.35
44297;BME280;51842;47.450;8.654;2023-06-01T11:39:46;95494.91;;;31.49;28.79
44297;BME280;51842;47.450;8.654;2023-06-01T11:42:14;95496.38;;;31.65;29.05
44297;BME280;51842;47.450;8.654;2023-06-01T11:44:46;95491.28;;;31.67;29.04
44297;BME280;51842;47.450;8.654;2023-06-01T11:47:21;95491.59;;;31.76;28.40
44297;BME280;51842;47.450;8.654;2023-06-01T11:49:51;95492.53;;;32.11;28.73
44297;BME280;51842;47.450;8.654;2023-06-01T11:52:19;95483.97;;;32.43;28.58
44297;BME280;51842;47.450;8.654;2023-06-01T11:54:46;95482.75;;;32.06;28.25
44297;BME280;51842;47.450;8.654;2023-06-01T11:57:12;95482.75;;;31.43;29.50
44297;BME280;51842;47.450;8.654;2023-06-01T11:59:49;95478.81;;;32.07;27.48
44297;BME280;51842;47.450;8.654;2023-06-01T12:02:24;95480.78;;;32.07;28.74
44297;BME280;51842;47.450;8.654;2023-06-01T12:07:24;95471.69;;;32.10;29.45
44297;BME280;51842;47.450;8.654;2023-06-01T12:09:53;95474.19;;;32.38;28.76
44297;BME280;51842;47.450;8.654;2023-06-01T12:12:24;95472.84;;;32.16;29.65
44297;BME280;51842;47.450;8.654;2023-06-01T12:14:51;95463.50;;;32.47;28.98
44297;BME280;51842;47.450;8.654;2023-06-01T12:17:18;95467.38;;;32.54;28.86
44297;BME280;51842;47.450;8.654;2023-06-01T12:19:49;95466.59;;;32.53;28.31
44297;BME280;51842;47.450;8.654;2023-06-01T12:22:16;95458.09;;;32.71;28.34
44297;BME280;51842;47.450;8.654;2023-06-01T12:24:43;95461.69;;;32.68;28.38
44297;BME280;51842;47.450;8.654;2023-06-01T12:27:17;95456.19;;;32.26;28.90
44297;BME280;51842;47.450;8.654;2023-06-01T12:29:47;95460.41;;;31.30;29.92
44297;BME280;51842;47.450;8.654;2023-06-01T12:32:15;95454.50;;;31.36;30.23
44297;BME280;51842;47.450;8.654;2023-06-01T12:34:44;95452.41;;;32.10;30.24
44297;BME280;51842;47.450;8.654;2023-06-01T12:37:17;95452.22;;;32.31;28.52
44297;BME280;51842;47.450;8.654;2023-06-01T12:39:55;95457.44;;;32.22;28.45
44297;BME280;51842;47.450;8.654;2023-06-01T12:45:06;95447.16;;;32.64;28.47
44297;BME280;51842;47.450;8.654;2023-06-01T12:47:42;95441.38;;;32.55;27.68
44297;BME280;51842;47.450;8.654;2023-06-01T12:50:10;95435.72;;;32.65;28.12
44297;BME280;51842;47.450;8.654;2023-06-01T12:52:39;95433.13;;;32.85;27.18
44297;BME280;51842;47.450;8.654;2023-06-01T12:55:06;95433.50;;;33.18;27.83
44297;BME280;51842;47.450;8.654;2023-06-01T12:57:33;95437.31;;;32.66;27.81
44297;BME280;51842;47.450;8.654;2023-06-01T12:59:59;95436.53;;;32.62;28.04
44297;BME280;51842;47.450;8.654;2023-06-01T13:02:26;95436.22;;;32.91;28.15
44297;BME280;51842;47.450;8.654;2023-06-01T13:04:52;95442.00;;;33.04;27.02
44297;BME280;51842;47.450;8.654;2023-06-01T13:07:19;95443.50;;;33.08;26.16
44297;BME280;51842;47.450;8.654;2023-06-01T13:09:49;95441.63;;;33.02;26.50
44297;BME280;51842;47.450;8.654;2023-06-01T13:12:15;95424.88;;;32.51;26.68
44297;BME280;51842;47.450;8.654;2023-06-01T13:14:41;95426.22;;;32.70;26.41
44297;BME280;51842;47.450;8.654;2023-06-01T13:17:07;95428.00;;;33.18;26.10
44297;BME280;51842;47.450;8.654;2023-06-01T13:19:33;95415.09;;;33.11;26.52
44297;BME280;51842;47.450;8.654;2023-06-01T13:21:59;95430.00;;;32.83;26.64
44297;BME280;51842;47.450;8.654;2023-06-01T13:24:25;95424.38;;;32.60;25.79
44297;BME280;51842;47.450;8.654;2023-06-01T13:26:50;95425.50;;;32.66;26.21
44297;BME280;51842;47.450;8.654;2023-06-01T13:29:16;95414.22;;;32.53;24.43
44297;BME280;51842;47.450;8.654;2023-06-01T13:31:43;95411.59;;;33.07;25.87
44297;BME280;51842;47.450;8.654;2023-06-01T13:34:09;95409.03;;;32.89;25.54
44297;BME280;51842;47.450;8.654;2023-06-01T13:36:34;95407.53;;;33.15;24.38
44297;BME280;51842;47.450;8.654;2023-06-01T13:39:00;95394.25;;;33.34;24.88
44297;BME280;51842;47.450;8.654;2023-06-01T13:41:26;95391.88;;;32.75;26.99
44297;BME280;51842;47.450;8.654;2023-06-01T13:43:52;95395.84;;;33.35;25.08
44297;BME280;51842;47.450;8.654;2023-06-01T13:46:18;95377.88;;;33.50;23.99
44297;BME280;51842;47.450;8.654;2023-06-01T13:48:44;95382.03;;;33.85;23.86
44297;BME280;51842;47.450;8.654;2023-06-01T13:51:10;95388.53;;;34.22;23.79